createdAt,value
2022-07-29T00:01:43.631Z,17.50
2022-07-29T00:04:12.146Z,17.50
2022-07-29T00:06:40.772Z,17.50
2022-07-29T00:09:09.423Z,17.40
2022-07-29T00:11:37.693Z,17.40
2022-07-29T00:14:07.596Z,17.40
2022-07-29T00:16:36.073Z,17.40
2022-07-29T00:19:05.049Z,17.40
2022-07-29T00:21:33.507Z,17.30
2022-07-29T00:24:01.726Z,17.30
2022-07-29T00:26:32.713Z,17.30
2022-07-29T00:29:31.988Z,17.40
2022-07-29T00:31:51.353Z,17.40
2022-07-29T00:34:37.162Z,17.30
2022-07-29T00:37:05.497Z,17.30
2022-07-29T00:39:36.152Z,17.20
2022-07-29T00:42:06.665Z,17.20
2022-07-29T00:44:38.984Z,17.20
2022-07-29T00:47:09.308Z,17.10
2022-07-29T00:49:37.901Z,17.20
2022-07-29T00:52:07.491Z,17.10
2022-07-29T00:54:37.432Z,17.10
2022-07-29T00:57:14.063Z,17.10
2022-07-29T00:59:42.593Z,17.00
2022-07-29T01:02:12.902Z,17.00
2022-07-29T01:04:42.205Z,17.00
2022-07-29T01:07:13.064Z,17.00
2022-07-29T01:09:45.664Z,17.00
2022-07-29T01:12:18.713Z,17.00
2022-07-29T01:14:48.252Z,17.00
2022-07-29T01:17:23.849Z,16.90
2022-07-29T01:20:03.444Z,16.90
2022-07-29T01:22:43.902Z,16.80
2022-07-29T01:25:25.762Z,16.70
2022-07-29T01:28:19.341Z,16.60
2022-07-29T01:30:54.329Z,16.50
2022-07-29T01:33:42.124Z,16.50
2022-07-29T01:36:14.270Z,16.40
2022-07-29T01:38:48.986Z,16.40
2022-07-29T01:41:19.888Z,16.30
2022-07-29T01:44:01.381Z,16.30
2022-07-29T01:46:35.732Z,16.30
2022-07-29T01:49:08.825Z,16.20
2022-07-29T01:51:44.405Z,16.20
2022-07-29T01:54:18.832Z,16.10
2022-07-29T01:56:49.120Z,16.00
2022-07-29T01:59:19.698Z,15.90
2022-07-29T02:01:50.844Z,15.90
2022-07-29T02:04:29.155Z,15.80
2022-07-29T02:07:03.439Z,15.70
2022-07-29T02:09:33.904Z,15.70
2022-07-29T02:12:04.089Z,15.70
2022-07-29T02:14:36.197Z,15.60
2022-07-29T02:17:05.054Z,15.60
2022-07-29T02:19:34.904Z,15.60
2022-07-29T02:22:05.202Z,15.50
2022-07-29T02:24:33.538Z,15.50
2022-07-29T02:27:03.656Z,15.40
2022-07-29T02:29:33.911Z,15.30
2022-07-29T02:32:05.248Z,15.20
2022-07-29T02:34:35.307Z,15.20
2022-07-29T02:37:06.216Z,15.20
2022-07-29T02:39:36.450Z,15.10
2022-07-29T02:42:09.266Z,15.00
2022-07-29T02:44:38.438Z,14.80
2022-07-29T02:47:13.199Z,14.80
2022-07-29T02:49:47.489Z,14.70
2022-07-29T02:52:24.129Z,14.50
2022-07-29T02:54:57.957Z,14.50
2022-07-29T02:57:33.866Z,14.40
2022-07-29T03:00:07.844Z,14.30
2022-07-29T03:02:40.408Z,14.20
2022-07-29T03:05:14.987Z,14.10
2022-07-29T03:07:50.123Z,14.00
2022-07-29T03:10:18.783Z,13.90
2022-07-29T03:12:48.024Z,13.80
2022-07-29T03:15:16.861Z,13.60
2022-07-29T03:17:46.079Z,13.60
2022-07-29T03:20:14.774Z,13.60
2022-07-29T03:22:44.834Z,13.40
2022-07-29T03:25:18.671Z,13.40
2022-07-29T03:27:48.129Z,13.40
2022-07-29T03:30:18.430Z,13.40
2022-07-29T03:32:52.567Z,13.40
2022-07-29T03:35:21.351Z,13.30
2022-07-29T03:37:49.803Z,13.30
2022-07-29T03:40:24.825Z,13.20
2022-07-29T03:42:56.261Z,13.20
2022-07-29T03:45:25.941Z,13.30
2022-07-29T03:48:00.974Z,13.30
2022-07-29T03:50:32.166Z,13.30
2022-07-29T03:53:01.804Z,13.30
2022-07-29T03:55:35.879Z,13.30
2022-07-29T03:58:04.861Z,13.20
2022-07-29T04:00:35.237Z,13.10
2022-07-29T04:03:05.171Z,13.00
2022-07-29T04:05:39.219Z,13.00
2022-07-29T04:08:09.928Z,12.90
2022-07-29T04:10:43.414Z,12.90
2022-07-29T04:13:11.643Z,12.90
2022-07-29T04:15:39.978Z,12.90
2022-07-29T04:18:08.268Z,12.80
2022-07-29T04:20:36.540Z,12.80
2022-07-29T04:23:05.470Z,12.80
2022-07-29T04:25:33.660Z,12.90
2022-07-29T04:28:03.315Z,13.00
2022-07-29T04:30:33.456Z,13.00
2022-07-29T04:33:02.636Z,12.90
2022-07-29T04:35:38.534Z,12.90
2022-07-29T04:38:15.800Z,13.00
2022-07-29T04:40:45.626Z,13.10
2022-07-29T04:43:20.555Z,13.10
2022-07-29T04:45:51.567Z,13.20
2022-07-29T04:48:21.963Z,13.30
2022-07-29T04:50:54.922Z,13.40
2022-07-29T04:53:23.188Z,13.60
2022-07-29T04:55:51.423Z,13.80
2022-07-29T04:58:21.049Z,13.90
2022-07-29T05:00:49.249Z,14.00
2022-07-29T05:03:17.587Z,14.20
2022-07-29T05:05:45.862Z,14.40
2022-07-29T05:08:14.115Z,14.60
2022-07-29T05:10:42.402Z,14.70
2022-07-29T05:13:10.814Z,14.90
2022-07-29T05:15:40.870Z,15.10
2022-07-29T05:18:09.256Z,15.30
2022-07-29T05:20:38.089Z,15.40
2022-07-29T05:23:06.391Z,15.60
2022-07-29T05:25:40.799Z,15.80
2022-07-29T05:28:12.892Z,15.90
2022-07-29T05:30:42.666Z,16.20
2022-07-29T05:33:35.400Z,16.40
2022-07-29T05:36:00.955Z,16.50
2022-07-29T05:38:29.968Z,16.70
2022-07-29T05:41:02.117Z,16.80
2022-07-29T05:43:30.977Z,17.00
2022-07-29T05:46:01.039Z,17.10
2022-07-29T05:48:30.366Z,17.30
2022-07-29T05:50:58.597Z,17.50
2022-07-29T05:53:27.099Z,17.60
2022-07-29T05:55:55.718Z,17.70
2022-07-29T05:58:24.194Z,17.80
2022-07-29T06:00:52.537Z,17.90
2022-07-29T06:03:22.181Z,18.10
2022-07-29T06:05:50.411Z,18.30
2022-07-29T06:08:18.721Z,18.40
2022-07-29T06:10:47.584Z,18.60
2022-07-29T06:13:16.971Z,18.70
2022-07-29T06:15:46.422Z,18.80
2022-07-29T06:18:15.058Z,18.80
2022-07-29T06:20:44.827Z,18.90
2022-07-29T06:23:13.099Z,19.10
2022-07-29T06:25:42.376Z,19.30
2022-07-29T06:28:10.606Z,19.30
2022-07-29T06:30:38.966Z,19.40
2022-07-29T06:33:07.399Z,19.40
2022-07-29T06:35:41.801Z,19.40
2022-07-29T06:38:34.128Z,19.50
2022-07-29T06:41:03.285Z,19.70
2022-07-29T06:43:51.902Z,19.80
2022-07-29T06:46:22.358Z,20.00
2022-07-29T06:48:52.905Z,20.00
2022-07-29T06:51:23.134Z,20.00
2022-07-29T06:54:00.159Z,20.10
2022-07-29T06:56:32.412Z,20.10
2022-07-29T06:59:07.306Z,20.20
2022-07-29T07:01:35.800Z,20.50
2022-07-29T07:04:04.354Z,20.50
2022-07-29T07:06:32.658Z,20.50
2022-07-29T07:09:02.347Z,20.70
2022-07-29T07:11:31.705Z,20.90
2022-07-29T07:14:03.494Z,21.00
2022-07-29T07:16:42.990Z,21.20
2022-07-29T07:19:11.219Z,21.20
2022-07-29T07:21:43.579Z,21.40
2022-07-29T07:24:13.452Z,21.60
2022-07-29T07:26:41.922Z,21.70
2022-07-29T07:29:10.217Z,21.60
2022-07-29T07:31:39.387Z,21.50
2022-07-29T07:34:08.036Z,21.60
2022-07-29T07:36:36.246Z,21.70
2022-07-29T07:39:06.163Z,22.00
2022-07-29T07:41:35.890Z,22.10
2022-07-29T07:44:04.184Z,22.30
2022-07-29T07:46:32.485Z,22.30
2022-07-29T07:49:00.882Z,22.30
2022-07-29T07:51:29.239Z,22.30
2022-07-29T07:53:57.687Z,22.50
2022-07-29T07:56:26.084Z,22.50
2022-07-29T07:58:58.831Z,22.70
2022-07-29T08:01:27.138Z,23.00
2022-07-29T08:03:55.609Z,23.00
2022-07-29T08:06:25.274Z,23.20
2022-07-29T08:08:56.252Z,23.10
2022-07-29T08:11:24.925Z,23.10
2022-07-29T08:13:53.280Z,23.00
2022-07-29T08:16:23.111Z,22.80
2022-07-29T08:18:51.338Z,23.10
2022-07-29T08:21:20.670Z,23.30
2022-07-29T08:23:58.969Z,23.30
2022-07-29T08:26:28.418Z,23.40
2022-07-29T08:28:56.912Z,23.40
2022-07-29T08:31:26.619Z,23.30
2022-07-29T08:33:57.184Z,23.10
2022-07-29T08:36:25.886Z,23.10
2022-07-29T08:38:54.304Z,23.30
2022-07-29T08:41:23.049Z,23.40
2022-07-29T08:43:52.899Z,23.50
2022-07-29T08:46:21.990Z,23.60
2022-07-29T08:48:51.870Z,23.60
2022-07-29T08:51:21.757Z,23.60
2022-07-29T08:53:51.873Z,23.80
2022-07-29T08:56:21.430Z,23.90
2022-07-29T08:58:52.222Z,24.20
2022-07-29T09:01:35.852Z,24.10
2022-07-29T09:04:12.962Z,23.80
2022-07-29T09:06:48.158Z,23.70
2022-07-29T09:09:16.970Z,23.70
2022-07-29T09:11:45.993Z,23.60
2022-07-29T09:14:17.315Z,23.70
2022-07-29T09:16:55.217Z,23.50
2022-07-29T09:19:30.453Z,23.60
2022-07-29T09:21:59.134Z,23.50
2022-07-29T09:24:41.378Z,23.70
2022-07-29T09:27:24.028Z,23.70
2022-07-29T09:29:59.956Z,23.80
2022-07-29T09:32:29.126Z,23.80
2022-07-29T09:35:23.410Z,23.90
2022-07-29T09:37:52.306Z,24.00
2022-07-29T09:40:22.416Z,24.20
2022-07-29T09:42:51.185Z,24.30
2022-07-29T09:45:30.601Z,24.30
2022-07-29T09:48:01.336Z,24.60
2022-07-29T09:50:44.845Z,24.40
2022-07-29T09:53:13.486Z,24.60
2022-07-29T09:55:51.734Z,24.40
2022-07-29T09:58:22.292Z,24.60
2022-07-29T10:00:52.043Z,24.80
2022-07-29T10:03:21.103Z,25.00
2022-07-29T10:06:07.538Z,25.20
2022-07-29T10:08:36.020Z,25.10
2022-07-29T10:11:15.346Z,25.20
2022-07-29T10:13:47.017Z,25.50
2022-07-29T10:16:16.618Z,25.40
2022-07-29T10:18:47.791Z,25.60
2022-07-29T10:21:35.673Z,25.50
2022-07-29T10:24:06.192Z,25.70
2022-07-29T10:26:34.804Z,25.90
2022-07-29T10:29:03.120Z,26.00
2022-07-29T10:31:38.996Z,26.10
2022-07-29T10:34:16.262Z,25.90
2022-07-29T10:36:56.867Z,26.00
2022-07-29T10:39:44.455Z,26.10
2022-07-29T10:42:29.798Z,26.20
2022-07-29T10:45:05.745Z,26.00
2022-07-29T10:47:35.261Z,26.20
2022-07-29T10:50:05.911Z,26.40
2022-07-29T10:52:57.971Z,26.70
2022-07-29T10:55:37.784Z,26.80
2022-07-29T10:58:19.662Z,27.20
2022-07-29T11:00:49.584Z,27.00
2022-07-29T11:03:50.899Z,26.80
2022-07-29T11:06:28.027Z,26.80
2022-07-29T11:09:30.171Z,26.90
2022-07-29T11:12:06.350Z,27.10
2022-07-29T11:15:09.496Z,27.70
2022-07-29T11:18:15.234Z,27.30
2022-07-29T11:20:47.814Z,27.10
2022-07-29T11:23:26.182Z,27.40
2022-07-29T11:26:21.197Z,27.90
2022-07-29T11:29:00.458Z,28.40
2022-07-29T11:31:38.823Z,28.80
2022-07-29T11:34:21.685Z,29.40
2022-07-29T11:37:20.041Z,29.10
2022-07-29T11:40:21.432Z,28.90
2022-07-29T11:42:52.826Z,28.80
2022-07-29T11:45:43.713Z,28.70
2022-07-29T11:48:31.898Z,28.60
2022-07-29T11:51:01.643Z,28.60
2022-07-29T11:53:32.838Z,28.60
2022-07-29T11:56:03.351Z,28.50
2022-07-29T11:58:33.875Z,28.20
2022-07-29T12:01:05.056Z,28.10
2022-07-29T12:03:36.911Z,28.70
2022-07-29T12:06:14.348Z,29.20
2022-07-29T12:08:44.952Z,29.30
2022-07-29T12:11:21.706Z,29.30
2022-07-29T12:13:52.862Z,29.50
2022-07-29T12:16:25.911Z,30.30
2022-07-29T12:18:59.697Z,30.00
2022-07-29T12:21:29.108Z,29.40
2022-07-29T12:24:05.989Z,29.30
2022-07-29T12:26:38.193Z,29.50
2022-07-29T12:29:20.359Z,30.10
2022-07-29T12:32:02.543Z,30.00
2022-07-29T12:34:31.809Z,29.30
2022-07-29T12:37:00.672Z,29.60
2022-07-29T12:39:29.448Z,29.30
2022-07-29T12:42:03.977Z,29.20
2022-07-29T12:44:48.448Z,28.50
2022-07-29T12:47:17.319Z,27.30
2022-07-29T12:49:46.435Z,27.50
2022-07-29T12:52:29.043Z,28.40
2022-07-29T12:54:57.529Z,29.10
2022-07-29T12:57:26.068Z,29.10
2022-07-29T13:00:11.160Z,29.10
2022-07-29T13:02:40.841Z,28.80
2022-07-29T13:05:10.885Z,28.40
2022-07-29T13:07:55.674Z,28.20
2022-07-29T13:10:26.054Z,28.70
2022-07-29T13:13:10.441Z,28.50
2022-07-29T13:15:41.676Z,28.10
2022-07-29T13:18:31.485Z,28.60
2022-07-29T13:21:13.660Z,29.60
2022-07-29T13:23:42.207Z,29.80
2022-07-29T13:26:11.328Z,29.60
2022-07-29T13:28:40.905Z,29.60
2022-07-29T13:31:14.063Z,29.40
2022-07-29T13:33:42.390Z,29.10
2022-07-29T13:36:10.857Z,28.40
2022-07-29T13:38:39.086Z,28.20
2022-07-29T13:41:07.694Z,28.60
2022-07-29T13:43:35.926Z,29.30
2022-07-29T13:46:04.296Z,29.70
2022-07-29T13:48:33.899Z,29.60
2022-07-29T13:51:02.211Z,29.40
2022-07-29T13:53:30.511Z,29.10
2022-07-29T13:55:58.800Z,28.90
2022-07-29T13:58:29.135Z,28.60
2022-07-29T14:00:58.970Z,28.20
2022-07-29T14:03:27.385Z,28.10
2022-07-29T14:06:01.325Z,28.30
2022-07-29T14:08:29.760Z,27.90
2022-07-29T14:10:58.063Z,27.70
2022-07-29T14:13:26.520Z,28.00
2022-07-29T14:15:55.374Z,27.90
2022-07-29T14:18:23.637Z,28.10
2022-07-29T14:20:52.185Z,28.40
2022-07-29T14:23:21.957Z,28.60
2022-07-29T14:25:50.176Z,28.80
2022-07-29T14:28:18.585Z,28.60
2022-07-29T14:30:47.007Z,28.50
2022-07-29T14:33:18.454Z,28.50
2022-07-29T14:35:47.431Z,28.50
2022-07-29T14:38:15.673Z,28.60
2022-07-29T14:40:46.096Z,28.60
2022-07-29T14:43:19.918Z,28.10
2022-07-29T14:45:51.649Z,27.90
2022-07-29T14:48:21.864Z,27.90
2022-07-29T14:50:52.131Z,28.00
2022-07-29T14:53:20.704Z,28.10
2022-07-29T14:55:50.733Z,28.20
2022-07-29T14:58:20.738Z,27.90
2022-07-29T15:00:49.070Z,27.60
2022-07-29T15:03:22.839Z,27.50
2022-07-29T15:05:52.811Z,27.50
2022-07-29T15:08:21.505Z,27.80
2022-07-29T15:10:58.518Z,27.90
2022-07-29T15:13:26.881Z,28.10
2022-07-29T15:15:59.773Z,27.70
2022-07-29T15:18:28.676Z,27.60
2022-07-29T15:20:56.886Z,27.60
2022-07-29T15:23:25.453Z,27.70
2022-07-29T15:25:55.142Z,27.50
2022-07-29T15:28:23.516Z,27.50
2022-07-29T15:30:51.851Z,27.50
2022-07-29T15:33:20.100Z,27.60
2022-07-29T15:35:48.418Z,27.50
2022-07-29T15:38:19.382Z,27.40
2022-07-29T15:40:47.694Z,27.20
2022-07-29T15:43:17.434Z,27.20
2022-07-29T15:46:07.296Z,27.20
2022-07-29T15:48:35.654Z,27.20
2022-07-29T15:51:03.889Z,27.00
2022-07-29T15:53:32.366Z,27.00
2022-07-29T15:56:01.441Z,27.60
2022-07-29T15:58:31.364Z,27.50
2022-07-29T16:00:59.796Z,27.30
2022-07-29T16:03:28.235Z,27.10
2022-07-29T16:05:57.259Z,27.00
2022-07-29T16:08:25.591Z,27.00
2022-07-29T16:10:53.924Z,27.20
2022-07-29T16:13:24.328Z,27.00
2022-07-29T16:16:02.843Z,27.20
2022-07-29T16:18:34.920Z,27.10
2022-07-29T16:21:06.015Z,27.10
2022-07-29T16:23:34.254Z,27.30
2022-07-29T16:26:02.534Z,27.20
2022-07-29T16:28:31.594Z,27.00
2022-07-29T16:31:01.273Z,26.90
2022-07-29T16:33:54.817Z,26.60
2022-07-29T16:36:18.461Z,26.40
2022-07-29T16:38:47.589Z,26.30
2022-07-29T16:41:16.071Z,26.10
2022-07-29T16:43:44.339Z,26.00
2022-07-29T16:46:18.565Z,25.70
2022-07-29T16:48:47.481Z,25.30
2022-07-29T16:51:16.985Z,25.10
2022-07-29T16:53:45.929Z,24.90
2022-07-29T16:56:18.096Z,24.60
2022-07-29T16:58:46.404Z,24.80
2022-07-29T17:01:17.148Z,25.20
2022-07-29T17:04:00.356Z,25.20
2022-07-29T17:06:29.890Z,25.00
2022-07-29T17:08:58.139Z,24.50
2022-07-29T17:11:53.833Z,23.90
2022-07-29T17:14:14.864Z,23.40
2022-07-29T17:17:00.050Z,23.00
2022-07-29T17:19:32.096Z,22.80
2022-07-29T17:22:10.439Z,22.50
2022-07-29T17:24:41.569Z,22.30
2022-07-29T17:27:12.250Z,22.20
2022-07-29T17:29:41.985Z,22.10
2022-07-29T17:32:12.373Z,22.10
2022-07-29T17:34:43.598Z,22.10
2022-07-29T17:37:13.411Z,22.10
2022-07-29T17:39:43.239Z,22.00
2022-07-29T17:42:12.885Z,21.80
2022-07-29T17:44:42.329Z,21.80
2022-07-29T17:47:16.071Z,21.80
2022-07-29T17:49:45.450Z,21.60
2022-07-29T17:52:13.704Z,21.60
2022-07-29T17:54:42.176Z,21.50
2022-07-29T17:57:10.482Z,21.40
2022-07-29T17:59:38.747Z,21.30
2022-07-29T18:02:07.187Z,21.20
2022-07-29T18:04:37.741Z,21.20
2022-07-29T18:07:06.128Z,21.10
2022-07-29T18:09:34.384Z,21.10
2022-07-29T18:12:02.650Z,21.00
2022-07-29T18:14:31.043Z,20.90
2022-07-29T18:17:02.282Z,20.90
2022-07-29T18:19:30.809Z,20.90
2022-07-29T18:22:05.104Z,20.80
2022-07-29T18:24:35.917Z,20.70
2022-07-29T18:27:04.151Z,20.70
2022-07-29T18:29:32.641Z,20.50
2022-07-29T18:32:02.731Z,20.40
2022-07-29T18:34:31.998Z,20.30
2022-07-29T18:37:02.007Z,20.20
2022-07-29T18:39:30.327Z,20.10
2022-07-29T18:41:58.675Z,20.00
2022-07-29T18:44:26.936Z,20.00
2022-07-29T18:46:55.674Z,19.90
2022-07-29T18:49:24.473Z,19.80
2022-07-29T18:51:53.260Z,19.70
2022-07-29T18:54:23.965Z,19.60
2022-07-29T18:56:55.871Z,19.50
2022-07-29T18:59:24.516Z,19.40
2022-07-29T19:01:53.120Z,19.40
2022-07-29T19:04:21.466Z,19.40
2022-07-29T19:06:50.110Z,19.30
2022-07-29T19:09:18.590Z,19.20
2022-07-29T19:11:49.529Z,19.10
2022-07-29T19:14:20.376Z,19.10
2022-07-29T19:16:50.738Z,18.90
2022-07-29T19:19:18.993Z,18.90
2022-07-29T19:21:49.239Z,18.80
2022-07-29T19:24:17.498Z,18.70
2022-07-29T19:26:47.571Z,18.60
2022-07-29T19:29:16.338Z,18.50
2022-07-29T19:31:46.501Z,18.40
2022-07-29T19:34:14.785Z,18.30
2022-07-29T19:36:43.033Z,18.20
2022-07-29T19:39:11.560Z,18.20
2022-07-29T19:41:40.076Z,18.10
2022-07-29T19:44:11.380Z,18.00
2022-07-29T19:46:39.716Z,18.00
2022-07-29T19:49:08.262Z,18.00
2022-07-29T19:51:37.222Z,17.90
2022-07-29T19:54:06.382Z,17.80
2022-07-29T19:56:35.058Z,17.80
2022-07-29T19:59:07.349Z,17.70
2022-07-29T20:01:37.647Z,17.70
2022-07-29T20:04:06.087Z,17.60
2022-07-29T20:06:34.957Z,17.60
2022-07-29T20:09:04.288Z,17.60
2022-07-29T20:11:36.669Z,17.50
2022-07-29T20:14:06.075Z,17.40
2022-07-29T20:16:34.330Z,17.30
2022-07-29T20:19:04.026Z,17.30
2022-07-29T20:21:33.940Z,17.20
2022-07-29T20:24:02.450Z,17.20
2022-07-29T20:26:30.901Z,17.00
2022-07-29T20:28:59.277Z,16.90
2022-07-29T20:31:27.715Z,16.90
2022-07-29T20:33:55.945Z,16.80
2022-07-29T20:36:25.851Z,16.70
2022-07-29T20:38:54.113Z,16.60
2022-07-29T20:41:22.525Z,16.60
2022-07-29T20:43:50.879Z,16.50
2022-07-29T20:46:19.601Z,16.30
2022-07-29T20:48:48.201Z,16.30
2022-07-29T20:51:16.638Z,16.10
2022-07-29T20:53:46.430Z,15.90
2022-07-29T20:56:14.858Z,15.70
2022-07-29T20:58:43.269Z,15.50
2022-07-29T21:01:11.754Z,15.30
2022-07-29T21:03:40.196Z,15.20
2022-07-29T21:06:09.147Z,15.10
2022-07-29T21:08:37.464Z,15.00
2022-07-29T21:11:07.177Z,15.10
2022-07-29T21:13:38.414Z,15.00
2022-07-29T21:16:14.899Z,14.80
2022-07-29T21:18:46.459Z,14.90
2022-07-29T21:21:15.837Z,14.90
2022-07-29T21:23:45.960Z,15.00
2022-07-29T21:26:16.073Z,15.10
2022-07-29T21:28:43.844Z,14.90
2022-07-29T21:31:13.532Z,14.80
2022-07-29T21:33:43.961Z,14.70
2022-07-29T21:36:46.821Z,14.80
2022-07-29T21:39:07.232Z,14.70
2022-07-29T21:41:37.267Z,14.60
2022-07-29T21:44:05.610Z,14.70
2022-07-29T21:46:33.903Z,14.60
2022-07-29T21:49:02.916Z,14.50
2022-07-29T21:51:31.282Z,14.40
2022-07-29T21:53:59.481Z,14.30
2022-07-29T21:56:28.029Z,14.30
2022-07-29T21:58:58.341Z,14.30
2022-07-29T22:01:26.658Z,14.30
2022-07-29T22:03:55.528Z,14.20
2022-07-29T22:06:24.077Z,14.20
2022-07-29T22:08:52.343Z,14.20
2022-07-29T22:11:21.006Z,14.20
2022-07-29T22:13:49.241Z,14.20
2022-07-29T22:16:21.665Z,14.20
2022-07-29T22:18:49.924Z,14.10
2022-07-29T22:21:18.193Z,14.00
2022-07-29T22:23:46.494Z,14.00
2022-07-29T22:26:14.808Z,13.90
2022-07-29T22:28:43.087Z,13.70
2022-07-29T22:31:11.376Z,13.60
2022-07-29T22:33:41.151Z,13.60
2022-07-29T22:36:10.486Z,13.50
2022-07-29T22:38:38.814Z,13.50
2022-07-29T22:41:07.139Z,13.50
2022-07-29T22:43:36.433Z,13.50
2022-07-29T22:46:04.855Z,13.60
2022-07-29T22:48:33.130Z,13.60
2022-07-29T22:51:02.850Z,13.50
2022-07-29T22:53:31.324Z,13.40
2022-07-29T22:55:59.652Z,13.30
2022-07-29T22:58:28.082Z,13.20
2022-07-29T23:00:56.414Z,13.10
2022-07-29T23:03:24.823Z,13.00
2022-07-29T23:05:53.159Z,13.10
2022-07-29T23:08:24.152Z,13.00
2022-07-29T23:10:52.416Z,12.90
2022-07-29T23:13:20.673Z,13.00
2022-07-29T23:15:48.927Z,13.00
2022-07-29T23:18:17.291Z,12.90
2022-07-29T23:20:45.853Z,12.80
2022-07-29T23:23:14.166Z,12.80
2022-07-29T23:25:45.466Z,12.90
2022-07-29T23:28:14.382Z,12.80
2022-07-29T23:30:42.821Z,12.70
2022-07-29T23:33:11.166Z,12.60
2022-07-29T23:35:39.480Z,12.60
2022-07-29T23:38:07.770Z,12.50
2022-07-29T23:40:36.161Z,12.50
2022-07-29T23:43:09.103Z,12.50
2022-07-29T23:45:45.000Z,12.40
2022-07-29T23:48:16.922Z,12.50
2022-07-29T23:50:45.516Z,12.60
2022-07-29T23:53:13.766Z,12.70
2022-07-29T23:55:42.029Z,12.60
2022-07-29T23:58:11.671Z,12.60
